sensor_id;sensor_type;location;lat;lon;timestamp;P1;durP1;ratioP1;P2;durP2;ratioP2
15381;SDS011;7789;51.364;12.358;2022-10-16T00:02:10;2.95;;;0.80;;
15381;SDS011;7789;51.364;12.358;2022-10-16T00:07:27;1.35;;;0.60;;
15381;SDS011;7789;51.364;12.358;2022-10-16T00:12:58;0.90;;;0.50;;
15381;SDS011;7789;51.364;12.358;2022-10-16T00:18:29;0.70;;;0.60;;
15381;SDS011;7789;51.364;12.358;2022-10-16T00:23:35;0.55;;;0.50;;
15381;SDS011;7789;51.364;12.358;2022-10-16T00:28:52;2.88;;;0.70;;
15381;SDS011;7789;51.364;12.358;2022-10-16T00:34:21;0.85;;;0.50;;
15381;SDS011;7789;51.364;12.358;2022-10-16T00:39:28;0.65;;;0.65;;
15381;SDS011;7789;51.364;12.358;2022-10-16T00:44:43;1.20;;;0.60;;
15381;SDS011;7789;51.364;12.358;2022-10-16T00:49:55;4.18;;;0.60;;
15381;SDS011;7789;51.364;12.358;2022-10-16T00:55:09;0.60;;;0.55;;
15381;SDS011;7789;51.364;12.358;2022-10-16T01:00:28;0.60;;;0.47;;
15381;SDS011;7789;51.364;12.358;2022-10-16T01:05:39;2.78;;;0.60;;
15381;SDS011;7789;51.364;12.358;2022-10-16T01:10:51;1.35;;;0.70;;
15381;SDS011;7789;51.364;12.358;2022-10-16T01:16:04;0.75;;;0.60;;
15381;SDS011;7789;51.364;12.358;2022-10-16T01:21:20;0.52;;;0.50;;
15381;SDS011;7789;51.364;12.358;2022-10-16T01:26:49;0.90;;;0.50;;
15381;SDS011;7789;51.364;12.358;2022-10-16T01:32:14;1.77;;;0.47;;
15381;SDS011;7789;51.364;12.358;2022-10-16T01:37:32;0.82;;;0.65;;
15381;SDS011;7789;51.364;12.358;2022-10-16T01:42:46;1.08;;;0.52;;
15381;SDS011;7789;51.364;12.358;2022-10-16T01:47:57;1.85;;;0.50;;
15381;SDS011;7789;51.364;12.358;2022-10-16T01:53:22;1.00;;;0.47;;
15381;SDS011;7789;51.364;12.358;2022-10-16T01:58:33;0.73;;;0.52;;
15381;SDS011;7789;51.364;12.358;2022-10-16T02:03:46;0.50;;;0.50;;
15381;SDS011;7789;51.364;12.358;2022-10-16T02:08:55;2.38;;;0.60;;
15381;SDS011;7789;51.364;12.358;2022-10-16T02:19:33;0.65;;;0.50;;
15381;SDS011;7789;51.364;12.358;2022-10-16T02:24:38;1.58;;;0.60;;
15381;SDS011;7789;51.364;12.358;2022-10-16T02:35:29;1.52;;;0.57;;
15381;SDS011;7789;51.364;12.358;2022-10-16T02:40:43;0.80;;;0.70;;
15381;SDS011;7789;51.364;12.358;2022-10-16T02:46:16;1.38;;;0.80;;
15381;SDS011;7789;51.364;12.358;2022-10-16T02:51:38;2.28;;;0.52;;
15381;SDS011;7789;51.364;12.358;2022-10-16T02:56:55;2.55;;;0.40;;
15381;SDS011;7789;51.364;12.358;2022-10-16T03:02:10;0.68;;;0.50;;
15381;SDS011;7789;51.364;12.358;2022-10-16T03:07:34;0.90;;;0.80;;
15381;SDS011;7789;51.364;12.358;2022-10-16T03:12:47;1.92;;;0.57;;
15381;SDS011;7789;51.364;12.358;2022-10-16T03:17:58;0.77;;;0.68;;
15381;SDS011;7789;51.364;12.358;2022-10-16T03:23:17;0.60;;;0.60;;
15381;SDS011;7789;51.364;12.358;2022-10-16T03:28:34;2.38;;;0.70;;
15381;SDS011;7789;51.364;12.358;2022-10-16T03:33:43;2.25;;;0.70;;
15381;SDS011;7789;51.364;12.358;2022-10-16T03:38:51;1.92;;;0.60;;
15381;SDS011;7789;51.364;12.358;2022-10-16T03:44:05;3.72;;;0.82;;
15381;SDS011;7789;51.364;12.358;2022-10-16T03:49:14;3.20;;;1.00;;
15381;SDS011;7789;51.364;12.358;2022-10-16T03:54:22;1.42;;;0.60;;
15381;SDS011;7789;51.364;12.358;2022-10-16T03:59:30;2.35;;;0.75;;
15381;SDS011;7789;51.364;12.358;2022-10-16T04:04:38;3.45;;;0.73;;
15381;SDS011;7789;51.364;12.358;2022-10-16T04:09:51;1.48;;;0.80;;
15381;SDS011;7789;51.364;12.358;2022-10-16T04:15:02;1.20;;;0.50;;
15381;SDS011;7789;51.364;12.358;2022-10-16T04:20:29;1.67;;;0.60;;
15381;SDS011;7789;51.364;12.358;2022-10-16T04:31:03;0.98;;;0.63;;
15381;SDS011;7789;51.364;12.358;2022-10-16T04:36:15;2.17;;;0.60;;
15381;SDS011;7789;51.364;12.358;2022-10-16T04:41:43;1.25;;;0.70;;
15381;SDS011;7789;51.364;12.358;2022-10-16T04:46:57;0.50;;;0.50;;
15381;SDS011;7789;51.364;12.358;2022-10-16T04:52:10;1.25;;;0.50;;
15381;SDS011;7789;51.364;12.358;2022-10-16T04:57:26;1.65;;;0.60;;
15381;SDS011;7789;51.364;12.358;2022-10-16T05:02:38;2.90;;;0.60;;
15381;SDS011;7789;51.364;12.358;2022-10-16T05:07:45;4.88;;;2.10;;
15381;SDS011;7789;51.364;12.358;2022-10-16T05:12:50;1.80;;;0.70;;
15381;SDS011;7789;51.364;12.358;2022-10-16T05:18:07;0.90;;;0.60;;
15381;SDS011;7789;51.364;12.358;2022-10-16T05:28:41;1.23;;;0.90;;
15381;SDS011;7789;51.364;12.358;2022-10-16T05:33:49;0.85;;;0.60;;
15381;SDS011;7789;51.364;12.358;2022-10-16T05:39:08;1.75;;;0.70;;
15381;SDS011;7789;51.364;12.358;2022-10-16T05:44:15;4.32;;;0.80;;
15381;SDS011;7789;51.364;12.358;2022-10-16T05:49:25;1.35;;;0.80;;
15381;SDS011;7789;51.364;12.358;2022-10-16T05:54:44;1.40;;;0.90;;
15381;SDS011;7789;51.364;12.358;2022-10-16T06:00:12;3.70;;;0.80;;
15381;SDS011;7789;51.364;12.358;2022-10-16T06:05:37;2.28;;;0.95;;
15381;SDS011;7789;51.364;12.358;2022-10-16T06:10:58;0.68;;;0.68;;
15381;SDS011;7789;51.364;12.358;2022-10-16T06:16:08;3.30;;;0.70;;
15381;SDS011;7789;51.364;12.358;2022-10-16T06:21:16;1.88;;;0.70;;
15381;SDS011;7789;51.364;12.358;2022-10-16T06:26:27;1.77;;;0.70;;
15381;SDS011;7789;51.364;12.358;2022-10-16T06:31:54;1.20;;;0.60;;
15381;SDS011;7789;51.364;12.358;2022-10-16T06:37:12;2.45;;;0.80;;
15381;SDS011;7789;51.364;12.358;2022-10-16T06:42:25;1.60;;;0.70;;
15381;SDS011;7789;51.364;12.358;2022-10-16T06:47:32;0.90;;;0.70;;
15381;SDS011;7789;51.364;12.358;2022-10-16T06:52:39;1.00;;;0.70;;
15381;SDS011;7789;51.364;12.358;2022-10-16T06:57:48;1.73;;;0.70;;
15381;SDS011;7789;51.364;12.358;2022-10-16T07:02:52;2.65;;;0.80;;
15381;SDS011;7789;51.364;12.358;2022-10-16T07:08:00;1.75;;;0.88;;
15381;SDS011;7789;51.364;12.358;2022-10-16T07:13:16;4.40;;;0.80;;
15381;SDS011;7789;51.364;12.358;2022-10-16T07:18:27;1.48;;;0.90;;
15381;SDS011;7789;51.364;12.358;2022-10-16T07:23:36;3.22;;;1.00;;
15381;SDS011;7789;51.364;12.358;2022-10-16T07:34:47;1.27;;;0.70;;
15381;SDS011;7789;51.364;12.358;2022-10-16T07:40:08;4.80;;;0.65;;
15381;SDS011;7789;51.364;12.358;2022-10-16T07:45:26;1.23;;;0.60;;
15381;SDS011;7789;51.364;12.358;2022-10-16T07:50:31;0.98;;;0.65;;
15381;SDS011;7789;51.364;12.358;2022-10-16T07:55:47;1.08;;;0.70;;
15381;SDS011;7789;51.364;12.358;2022-10-16T08:01:06;1.73;;;0.65;;
15381;SDS011;7789;51.364;12.358;2022-10-16T08:06:12;1.92;;;1.00;;
15381;SDS011;7789;51.364;12.358;2022-10-16T08:11:37;1.35;;;0.80;;
15381;SDS011;7789;51.364;12.358;2022-10-16T08:16:43;0.70;;;0.60;;
15381;SDS011;7789;51.364;12.358;2022-10-16T08:21:54;0.98;;;0.60;;
15381;SDS011;7789;51.364;12.358;2022-10-16T08:26:59;1.23;;;0.47;;
15381;SDS011;7789;51.364;12.358;2022-10-16T08:32:13;0.60;;;0.40;;
15381;SDS011;7789;51.364;12.358;2022-10-16T08:37:29;1.00;;;0.52;;
15381;SDS011;7789;51.364;12.358;2022-10-16T08:42:44;0.63;;;0.50;;
15381;SDS011;7789;51.364;12.358;2022-10-16T08:48:08;2.75;;;0.40;;
15381;SDS011;7789;51.364;12.358;2022-10-16T08:53:24;0.45;;;0.45;;
15381;SDS011;7789;51.364;12.358;2022-10-16T08:58:47;1.63;;;0.30;;
15381;SDS011;7789;51.364;12.358;2022-10-16T09:09:52;0.50;;;0.50;;
15381;SDS011;7789;51.364;12.358;2022-10-16T09:15:20;2.28;;;0.57;;
15381;SDS011;7789;51.364;12.358;2022-10-16T09:20:35;1.70;;;0.50;;
15381;SDS011;7789;51.364;12.358;2022-10-16T09:25:48;1.10;;;0.40;;
15381;SDS011;7789;51.364;12.358;2022-10-16T09:30:57;0.60;;;0.30;;
15381;SDS011;7789;51.364;12.358;2022-10-16T09:36:04;1.45;;;0.40;;
15381;SDS011;7789;51.364;12.358;2022-10-16T09:41:17;0.55;;;0.50;;
15381;SDS011;7789;51.364;12.358;2022-10-16T09:46:25;3.30;;;0.40;;
15381;SDS011;7789;51.364;12.358;2022-10-16T09:51:35;2.10;;;0.60;;
15381;SDS011;7789;51.364;12.358;2022-10-16T09:56:49;0.55;;;0.50;;
15381;SDS011;7789;51.364;12.358;2022-10-16T10:02:01;0.80;;;0.45;;
15381;SDS011;7789;51.364;12.358;2022-10-16T10:07:38;0.70;;;0.40;;
15381;SDS011;7789;51.364;12.358;2022-10-16T10:18:43;0.88;;;0.60;;
15381;SDS011;7789;51.364;12.358;2022-10-16T10:24:13;0.40;;;0.40;;
15381;SDS011;7789;51.364;12.358;2022-10-16T10:29:25;0.70;;;0.50;;
15381;SDS011;7789;51.364;12.358;2022-10-16T10:34:44;1.20;;;0.90;;
15381;SDS011;7789;51.364;12.358;2022-10-16T10:40:00;2.45;;;1.20;;
15381;SDS011;7789;51.364;12.358;2022-10-16T10:45:37;0.57;;;0.50;;
15381;SDS011;7789;51.364;12.358;2022-10-16T10:51:04;0.50;;;0.50;;
15381;SDS011;7789;51.364;12.358;2022-10-16T10:56:50;0.85;;;0.50;;
15381;SDS011;7789;51.364;12.358;2022-10-16T11:02:21;0.40;;;0.40;;
15381;SDS011;7789;51.364;12.358;2022-10-16T11:07:33;1.13;;;0.40;;
15381;SDS011;7789;51.364;12.358;2022-10-16T11:12:45;0.98;;;0.55;;
15381;SDS011;7789;51.364;12.358;2022-10-16T11:18:13;3.40;;;0.85;;
15381;SDS011;7789;51.364;12.358;2022-10-16T11:23:28;2.45;;;0.60;;
15381;SDS011;7789;51.364;12.358;2022-10-16T11:28:59;0.50;;;0.50;;
15381;SDS011;7789;51.364;12.358;2022-10-16T11:34:38;2.10;;;0.75;;
15381;SDS011;7789;51.364;12.358;2022-10-16T11:39:57;1.95;;;0.70;;
15381;SDS011;7789;51.364;12.358;2022-10-16T11:45:13;1.90;;;1.00;;
15381;SDS011;7789;51.364;12.358;2022-10-16T11:50:31;0.70;;;0.70;;
15381;SDS011;7789;51.364;12.358;2022-10-16T11:55:48;0.80;;;0.60;;
15381;SDS011;7789;51.364;12.358;2022-10-16T12:01:01;3.80;;;2.65;;
15381;SDS011;7789;51.364;12.358;2022-10-16T12:06:30;3.33;;;0.70;;
15381;SDS011;7789;51.364;12.358;2022-10-16T12:11:43;1.42;;;0.82;;
15381;SDS011;7789;51.364;12.358;2022-10-16T12:16:57;0.68;;;0.68;;
15381;SDS011;7789;51.364;12.358;2022-10-16T12:22:25;0.70;;;0.60;;
15381;SDS011;7789;51.364;12.358;2022-10-16T12:27:53;0.68;;;0.57;;
15381;SDS011;7789;51.364;12.358;2022-10-16T12:33:01;0.77;;;0.60;;
15381;SDS011;7789;51.364;12.358;2022-10-16T12:38:28;2.40;;;0.70;;
15381;SDS011;7789;51.364;12.358;2022-10-16T12:43:44;1.10;;;0.40;;
15381;SDS011;7789;51.364;12.358;2022-10-16T12:49:04;1.75;;;0.40;;
15381;SDS011;7789;51.364;12.358;2022-10-16T12:54:47;0.50;;;0.50;;
15381;SDS011;7789;51.364;12.358;2022-10-16T12:59:56;0.95;;;0.70;;
15381;SDS011;7789;51.364;12.358;2022-10-16T13:05:20;2.13;;;0.50;;
15381;SDS011;7789;51.364;12.358;2022-10-16T13:16:15;0.43;;;0.43;;
15381;SDS011;7789;51.364;12.358;2022-10-16T13:21:33;0.40;;;0.40;;
15381;SDS011;7789;51.364;12.358;2022-10-16T13:27:01;1.05;;;0.60;;
15381;SDS011;7789;51.364;12.358;2022-10-16T13:32:19;1.92;;;0.77;;
15381;SDS011;7789;51.364;12.358;2022-10-16T13:37:39;1.45;;;0.50;;
15381;SDS011;7789;51.364;12.358;2022-10-16T13:43:01;1.90;;;0.90;;
15381;SDS011;7789;51.364;12.358;2022-10-16T13:48:11;0.68;;;0.52;;
15381;SDS011;7789;51.364;12.358;2022-10-16T13:53:26;1.88;;;0.50;;
15381;SDS011;7789;51.364;12.358;2022-10-16T13:58:36;1.23;;;0.90;;
15381;SDS011;7789;51.364;12.358;2022-10-16T14:03:51;2.28;;;0.70;;
15381;SDS011;7789;51.364;12.358;2022-10-16T14:09:17;1.73;;;0.85;;
15381;SDS011;7789;51.364;12.358;2022-10-16T14:14:45;0.98;;;0.60;;
15381;SDS011;7789;51.364;12.358;2022-10-16T14:20:03;0.90;;;0.60;;
15381;SDS011;7789;51.364;12.358;2022-10-16T14:25:20;0.63;;;0.60;;
15381;SDS011;7789;51.364;12.358;2022-10-16T14:30:50;9.00;;;6.25;;
15381;SDS011;7789;51.364;12.358;2022-10-16T14:36:00;0.80;;;0.77;;
15381;SDS011;7789;51.364;12.358;2022-10-16T14:41:10;4.13;;;0.82;;
15381;SDS011;7789;51.364;12.358;2022-10-16T14:46:30;1.98;;;1.00;;
15381;SDS011;7789;51.364;12.358;2022-10-16T14:51:44;0.98;;;0.63;;
15381;SDS011;7789;51.364;12.358;2022-10-16T14:56:53;0.73;;;0.60;;
15381;SDS011;7789;51.364;12.358;2022-10-16T15:07:51;2.92;;;2.05;;
15381;SDS011;7789;51.364;12.358;2022-10-16T15:18:26;0.95;;;0.80;;
15381;SDS011;7789;51.364;12.358;2022-10-16T15:23:45;1.55;;;0.95;;
15381;SDS011;7789;51.364;12.358;2022-10-16T15:28:54;2.50;;;1.40;;
15381;SDS011;7789;51.364;12.358;2022-10-16T15:34:08;1.98;;;1.30;;
15381;SDS011;7789;51.364;12.358;2022-10-16T15:39:27;1.58;;;1.25;;
15381;SDS011;7789;51.364;12.358;2022-10-16T15:44:43;1.70;;;1.08;;
15381;SDS011;7789;51.364;12.358;2022-10-16T15:49:55;2.65;;;1.42;;
15381;SDS011;7789;51.364;12.358;2022-10-16T15:55:05;2.08;;;1.10;;
15381;SDS011;7789;51.364;12.358;2022-10-16T16:00:11;1.15;;;1.02;;
15381;SDS011;7789;51.364;12.358;2022-10-16T16:05:25;1.08;;;1.00;;
15381;SDS011;7789;51.364;12.358;2022-10-16T16:10:39;1.88;;;1.17;;
15381;SDS011;7789;51.364;12.358;2022-10-16T16:15:54;1.50;;;1.00;;
15381;SDS011;7789;51.364;12.358;2022-10-16T16:21:22;4.75;;;1.10;;
15381;SDS011;7789;51.364;12.358;2022-10-16T16:26:37;1.30;;;1.13;;
15381;SDS011;7789;51.364;12.358;2022-10-16T16:31:49;1.85;;;1.35;;
15381;SDS011;7789;51.364;12.358;2022-10-16T16:37:01;2.08;;;1.50;;
15381;SDS011;7789;51.364;12.358;2022-10-16T16:42:31;1.80;;;1.20;;
15381;SDS011;7789;51.364;12.358;2022-10-16T16:47:37;2.13;;;1.38;;
15381;SDS011;7789;51.364;12.358;2022-10-16T16:52:47;3.30;;;2.35;;
15381;SDS011;7789;51.364;12.358;2022-10-16T16:57:59;3.20;;;1.98;;
15381;SDS011;7789;51.364;12.358;2022-10-16T17:03:05;2.55;;;1.65;;
15381;SDS011;7789;51.364;12.358;2022-10-16T17:08:23;2.38;;;2.17;;
15381;SDS011;7789;51.364;12.358;2022-10-16T17:13:43;2.55;;;2.30;;
15381;SDS011;7789;51.364;12.358;2022-10-16T17:19:02;2.28;;;2.08;;
15381;SDS011;7789;51.364;12.358;2022-10-16T17:24:28;3.60;;;2.05;;
15381;SDS011;7789;51.364;12.358;2022-10-16T17:29:38;4.25;;;2.30;;
15381;SDS011;7789;51.364;12.358;2022-10-16T17:34:48;3.67;;;2.08;;
15381;SDS011;7789;51.364;12.358;2022-10-16T17:40:10;3.65;;;2.47;;
15381;SDS011;7789;51.364;12.358;2022-10-16T17:45:30;3.45;;;2.38;;
15381;SDS011;7789;51.364;12.358;2022-10-16T17:50:51;5.22;;;2.20;;
15381;SDS011;7789;51.364;12.358;2022-10-16T17:56:17;4.10;;;2.47;;
15381;SDS011;7789;51.364;12.358;2022-10-16T18:01:37;2.97;;;2.28;;
15381;SDS011;7789;51.364;12.358;2022-10-16T18:06:54;3.13;;;2.60;;
15381;SDS011;7789;51.364;12.358;2022-10-16T18:11:59;4.70;;;2.25;;
15381;SDS011;7789;51.364;12.358;2022-10-16T18:17:14;6.00;;;3.28;;
15381;SDS011;7789;51.364;12.358;2022-10-16T18:22:40;6.97;;;3.08;;
15381;SDS011;7789;51.364;12.358;2022-10-16T18:27:56;3.35;;;3.05;;
15381;SDS011;7789;51.364;12.358;2022-10-16T18:33:02;7.32;;;4.05;;
15381;SDS011;7789;51.364;12.358;2022-10-16T18:38:18;6.75;;;2.90;;
15381;SDS011;7789;51.364;12.358;2022-10-16T18:43:25;3.22;;;2.40;;
15381;SDS011;7789;51.364;12.358;2022-10-16T18:48:34;5.00;;;3.03;;
15381;SDS011;7789;51.364;12.358;2022-10-16T18:53:43;4.03;;;2.10;;
15381;SDS011;7789;51.364;12.358;2022-10-16T18:58:55;2.95;;;2.42;;
15381;SDS011;7789;51.364;12.358;2022-10-16T19:04:18;3.03;;;1.90;;
15381;SDS011;7789;51.364;12.358;2022-10-16T19:14:53;2.80;;;2.30;;
15381;SDS011;7789;51.364;12.358;2022-10-16T19:20:01;4.13;;;2.58;;
15381;SDS011;7789;51.364;12.358;2022-10-16T19:25:07;2.28;;;1.90;;
15381;SDS011;7789;51.364;12.358;2022-10-16T19:30:13;2.70;;;1.98;;
15381;SDS011;7789;51.364;12.358;2022-10-16T19:35:22;2.22;;;1.90;;
15381;SDS011;7789;51.364;12.358;2022-10-16T19:40:44;4.88;;;1.98;;
15381;SDS011;7789;51.364;12.358;2022-10-16T19:46:01;2.42;;;1.63;;
15381;SDS011;7789;51.364;12.358;2022-10-16T19:51:17;3.17;;;1.85;;
15381;SDS011;7789;51.364;12.358;2022-10-16T19:56:32;2.33;;;2.05;;
15381;SDS011;7789;51.364;12.358;2022-10-16T20:01:40;4.03;;;2.05;;
15381;SDS011;7789;51.364;12.358;2022-10-16T20:06:50;3.42;;;2.08;;
15381;SDS011;7789;51.364;12.358;2022-10-16T20:11:55;1.80;;;1.67;;
15381;SDS011;7789;51.364;12.358;2022-10-16T20:17:10;2.30;;;2.10;;
15381;SDS011;7789;51.364;12.358;2022-10-16T20:22:30;2.42;;;1.80;;
15381;SDS011;7789;51.364;12.358;2022-10-16T20:27:36;2.67;;;1.90;;
15381;SDS011;7789;51.364;12.358;2022-10-16T20:32:49;4.15;;;1.90;;
15381;SDS011;7789;51.364;12.358;2022-10-16T20:38:10;4.88;;;1.85;;
15381;SDS011;7789;51.364;12.358;2022-10-16T20:43:32;3.88;;;1.77;;
15381;SDS011;7789;51.364;12.358;2022-10-16T20:48:42;2.30;;;2.10;;
15381;SDS011;7789;51.364;12.358;2022-10-16T20:53:52;2.95;;;1.80;;
15381;SDS011;7789;51.364;12.358;2022-10-16T20:59:02;5.93;;;2.17;;
15381;SDS011;7789;51.364;12.358;2022-10-16T21:04:09;2.15;;;1.90;;
15381;SDS011;7789;51.364;12.358;2022-10-16T21:09:31;3.88;;;2.20;;
15381;SDS011;7789;51.364;12.358;2022-10-16T21:14:42;4.18;;;2.10;;
15381;SDS011;7789;51.364;12.358;2022-10-16T21:20:13;5.28;;;2.15;;
15381;SDS011;7789;51.364;12.358;2022-10-16T21:25:28;1.95;;;1.67;;
15381;SDS011;7789;51.364;12.358;2022-10-16T21:30:35;3.10;;;2.15;;
15381;SDS011;7789;51.364;12.358;2022-10-16T21:35:42;4.03;;;2.15;;
15381;SDS011;7789;51.364;12.358;2022-10-16T21:40:52;2.83;;;1.85;;
15381;SDS011;7789;51.364;12.358;2022-10-16T21:46:12;3.63;;;3.00;;
15381;SDS011;7789;51.364;12.358;2022-10-16T21:51:27;5.97;;;2.42;;
15381;SDS011;7789;51.364;12.358;2022-10-16T21:56:35;2.63;;;1.95;;
15381;SDS011;7789;51.364;12.358;2022-10-16T22:01:51;2.45;;;2.25;;
15381;SDS011;7789;51.364;12.358;2022-10-16T22:07:07;4.80;;;2.25;;
15381;SDS011;7789;51.364;12.358;2022-10-16T22:12:26;3.58;;;2.05;;
15381;SDS011;7789;51.364;12.358;2022-10-16T22:17:33;3.70;;;2.35;;
15381;SDS011;7789;51.364;12.358;2022-10-16T22:22:42;3.33;;;2.45;;
15381;SDS011;7789;51.364;12.358;2022-10-16T22:27:51;5.50;;;2.17;;
15381;SDS011;7789;51.364;12.358;2022-10-16T22:32:57;2.95;;;2.50;;
15381;SDS011;7789;51.364;12.358;2022-10-16T22:38:13;2.65;;;2.25;;
15381;SDS011;7789;51.364;12.358;2022-10-16T22:43:24;4.35;;;2.30;;
15381;SDS011;7789;51.364;12.358;2022-10-16T22:48:30;4.10;;;2.55;;
15381;SDS011;7789;51.364;12.358;2022-10-16T22:53:43;6.65;;;2.45;;
15381;SDS011;7789;51.364;12.358;2022-10-16T22:58:54;3.08;;;2.35;;
15381;SDS011;7789;51.364;12.358;2022-10-16T23:04:05;2.85;;;2.28;;
15381;SDS011;7789;51.364;12.358;2022-10-16T23:09:24;5.05;;;2.47;;
15381;SDS011;7789;51.364;12.358;2022-10-16T23:14:53;2.97;;;2.70;;
15381;SDS011;7789;51.364;12.358;2022-10-16T23:20:02;3.25;;;2.40;;
15381;SDS011;7789;51.364;12.358;2022-10-16T23:25:13;3.05;;;2.58;;
15381;SDS011;7789;51.364;12.358;2022-10-16T23:30:26;3.80;;;2.50;;
15381;SDS011;7789;51.364;12.358;2022-10-16T23:35:37;4.30;;;2.10;;
15381;SDS011;7789;51.364;12.358;2022-10-16T23:40:43;2.80;;;1.88;;
15381;SDS011;7789;51.364;12.358;2022-10-16T23:46:15;6.57;;;2.35;;
15381;SDS011;7789;51.364;12.358;2022-10-16T23:51:20;3.80;;;2.53;;
15381;SDS011;7789;51.364;12.358;2022-10-16T23:56:29;2.83;;;2.38;;
